Ana Sayfa
METAR-TAF:

METAR-TAF

Havaalanları :

Phitsanulok, Tayland

Enlem: 16-46-23N, Boylam: 100-16-56E, yükseklik: 47 m

Güncel hava durumu gözlemi

Rapor saat 14:00 UTC de 4 saat ve 11 dakika önce yapıldı.
Sakin rüzgar
Sıcaklık 16°C
Nem 82%
Basınç 1013 hPa
Görüş mesafesi: 5000 m
100 ft yükseklikte az bulutlu
Pus

METAR: VTPP 101400Z 00000KT 5000 BR FEW001 16/13 Q1013 NOSIG

Saat: 01:11 (18:11 UTC)

Tahmin

Rapor saat 17:00 UTC de 1 saat ve 11 dakika önce yapıldı.
Ayın 10'si saat 18 UTC'den ayın 11'si saat 18 UTC'ye kadar geçerli Tahmin
Rüzgar doğu/kuzeydoğudan 5 kt
Görüş mesafesi: 7000 m
Dönüşüyor
ayın 10'si saat 21 UTC'den ayın 10'si saat 23 UTC'ye kadar
Görüş mesafesi: 4000 m
Pus
Dönüşüyor
ayın 11'si saat 01 UTC'den ayın 11'si saat 03 UTC'ye kadar
Görüş mesafesi: 7000 m

TAF: VTPP 101700Z 1018/1118 06005KT 7000 NSC BECMG 1021/1023 4000 BR BECMG 1101/1103 7000 NSW

4.000'den fazla havaalanı için hava durumu gözlemleri ve tahminleri (METAR ve TAF raporları).

Kullanılabilir istasyonlar harita üzerinde sarı ve kırmızı noktalarla gösterilir.

İstasyonun adını görmek için fareyi noktanın üzerinde gezdirin.

Sonrasında hava gözlem ve tahminlerini görmek için tıklayın.

Haritayı değiştirmek için: yaklaştırmak için siyah artı işaretli yeşil düğmeye ve uzaklaştırmak için de eksi işaretli düğmeye hızla tıklayın; bitişik haritalar için yeşil okları kullanın.


METAR-TAF: